Time;durP1;ratioP1;P1;durP2;ratioP2;P2;SDS_P1;SDS_P2;PMS_P1;PMS_P2;Temp;Humidity;BMP_temperature;BMP_pressure;BME280_temperature;BME280_humidity;BME280_pressure;Samples;Min_cycle;Max_cycle;Signal;HPM_P1;HPM_P2
2023/09/05 00:00:00;;;;;;;0.00;0.00;;;;;;;;;;1733232;28;20354;-61
2023/09/05 00:00:52;;;;;;;0.00;0.00;;;;;;;;;;1730692;28;20254;-62
2023/09/05 00:01:45;;;;;;;0.00;0.00;;;;;;;;;;1731538;28;20215;-61
2023/09/05 00:02:37;;;;;;;0.00;0.00;;;;;;;;;;1730383;28;20290;-62
2023/09/05 00:03:31;;;;;;;0.00;0.00;;;;;;;;;;1732683;28;20231;-61
2023/09/05 00:04:22;;;;;;;0.00;0.00;;;;;;;;;;1732364;28;20250;-61
2023/09/05 00:05:18;;;;;;;0.00;0.00;;;;;;;;;;1731468;28;20196;-62
2023/09/05 00:06:10;;;;;;;0.00;0.00;;;;;;;;;;1732080;28;20653;-61
2023/09/05 00:07:01;;;;;;;0.00;0.00;;;;;;;;;;1732889;28;20203;-61
2023/09/05 00:07:53;;;;;;;0.00;0.00;;;;;;;;;;1732469;28;20285;-61
2023/09/05 00:08:44;;;;;;;0.00;0.00;;;;;;;;;;1732872;28;20227;-61
2023/09/05 00:09:36;;;;;;;0.00;0.00;;;;;;;;;;1731960;28;20210;-61
2023/09/05 00:10:28;;;;;;;0.00;0.00;;;;;;;;;;1731279;28;20617;-61
2023/09/05 00:11:19;;;;;;;0.00;0.00;;;;;;;;;;1732390;28;20204;-61
2023/09/05 00:12:10;;;;;;;0.00;0.00;;;;;;;;;;1732626;28;20233;-61
2023/09/05 00:13:05;;;;;;;0.00;0.00;;;;;;;;;;1732248;28;20207;-61
2023/09/05 00:13:56;;;;;;;0.00;0.00;;;;;;;;;;1727239;28;20204;-61
2023/09/05 00:14:48;;;;;;;0.00;0.00;;;;;;;;;;1732326;28;20311;-61
2023/09/05 00:15:40;;;;;;;0.00;0.00;;;;;;;;;;1730519;28;20733;-61
2023/09/05 00:16:31;;;;;;;0.00;0.00;;;;;;;;;;1732086;28;20211;-61
2023/09/05 00:17:22;;;;;;;0.00;0.00;;;;;;;;;;1731777;28;20207;-61
2023/09/05 00:18:14;;;;;;;0.00;0.00;;;;;;;;;;1732446;28;20238;-61
2023/09/05 00:19:06;;;;;;;0.00;0.00;;;;;;;;;;1731945;28;20527;-61
2023/09/05 00:19:57;;;;;;;0.00;0.00;;;;;;;;;;1732509;28;20234;-61
2023/09/05 00:20:54;;;;;;;0.00;0.00;;;;;;;;;;1730256;28;20235;-62
2023/09/05 00:21:45;;;;;;;0.00;0.00;;;;;;;;;;1732195;28;20230;-62
2023/09/05 00:22:37;;;;;;;0.00;0.00;;;;;;;;;;1731849;28;20641;-61
2023/09/05 00:23:29;;;;;;;0.00;0.00;;;;;;;;;;1753455;23;20244;-66
2023/09/05 00:24:23;;;;;;;0.00;0.00;;;;;;;;;;1729152;28;20215;-66
2023/09/05 00:25:15;;;;;;;0.00;0.00;;;;;;;;;;1726615;28;20673;-66
2023/09/05 00:26:06;;;;;;;0.00;0.00;;;;;;;;;;1731432;28;20219;-66
2023/09/05 00:26:58;;;;;;;0.00;0.00;;;;;;;;;;1732344;28;20204;-66
2023/09/05 00:27:50;;;;;;;0.00;0.00;;;;;;;;;;1731471;28;20766;-64
2023/09/05 00:28:42;;;;;;;0.00;0.00;;;;;;;;;;1732560;28;20541;-66
2023/09/05 00:29:33;;;;;;;0.00;0.00;;;;;;;;;;1732677;28;20671;-67
2023/09/05 00:30:26;;;;;;;0.00;0.00;;;;;;;;;;1734905;28;20353;-64
2023/09/05 00:31:17;;;;;;;0.00;0.00;;;;;;;;;;1731698;28;20232;-64
2023/09/05 00:32:09;;;;;;;0.00;0.00;;;;;;;;;;1732122;28;20204;-63
2023/09/05 00:33:01;;;;;;;0.00;0.00;;;;;;;;;;1734250;28;20208;-63
2023/09/05 00:33:52;;;;;;;0.00;0.00;;;;;;;;;;1732289;28;20777;-63
2023/09/05 00:34:43;;;;;;;0.00;0.00;;;;;;;;;;1734359;28;20230;-64
2023/09/05 00:35:35;;;;;;;0.00;0.00;;;;;;;;;;1733412;28;20316;-64
2023/09/05 00:36:28;;;;;;;0.00;0.00;;;;;;;;;;1731764;28;20254;-63
2023/09/05 00:37:22;;;;;;;0.00;0.00;;;;;;;;;;1731896;28;20207;-63
2023/09/05 00:38:13;;;;;;;0.00;0.00;;;;;;;;;;1734546;28;20511;-66
2023/09/05 00:39:05;;;;;;;0.00;0.00;;;;;;;;;;1732166;28;20290;-66
2023/09/05 00:39:57;;;;;;;0.00;0.00;;;;;;;;;;1732473;28;20318;-64
2023/09/05 00:40:49;;;;;;;0.00;0.00;;;;;;;;;;1730258;28;20235;-64
2023/09/05 00:41:40;;;;;;;0.00;0.00;;;;;;;;;;1732225;28;20204;-64
2023/09/05 00:42:32;;;;;;;0.00;0.00;;;;;;;;;;1731452;28;20200;-64
2023/09/05 00:43:23;;;;;;;0.00;0.00;;;;;;;;;;1734526;28;20638;-65
2023/09/05 00:44:15;;;;;;;0.00;0.00;;;;;;;;;;1731695;28;20211;-64
2023/09/05 00:45:09;;;;;;;0.00;0.00;;;;;;;;;;1737530;28;20823;-62
2023/09/05 00:46:00;;;;;;;0.00;0.00;;;;;;;;;;1730696;28;20598;-64
2023/09/05 00:46:52;;;;;;;0.00;0.00;;;;;;;;;;1731928;28;20646;-64
2023/09/05 00:47:47;;;;;;;0.00;0.00;;;;;;;;;;1730814;28;20687;-64
2023/09/05 00:48:40;;;;;;;0.00;0.00;;;;;;;;;;1729773;28;20215;-64
2023/09/05 00:49:39;;;;;;;0.00;0.00;;;;;;;;;;1732054;28;20625;-64
2023/09/05 00:50:31;;;;;;;0.00;0.00;;;;;;;;;;1728640;28;20235;-64
2023/09/05 00:51:23;;;;;;;0.00;0.00;;;;;;;;;;1731610;28;20210;-64
2023/09/05 00:52:18;;;;;;;0.00;0.00;;;;;;;;;;1731934;28;20368;-65
2023/09/05 00:53:10;;;;;;;0.00;0.00;;;;;;;;;;1731610;28;20238;-64
2023/09/05 00:54:02;;;;;;;0.00;0.00;;;;;;;;;;1732131;28;20293;-64
2023/09/05 00:54:54;;;;;;;0.00;0.00;;;;;;;;;;1735519;28;20199;-63
2023/09/05 00:55:46;;;;;;;0.00;0.00;;;;;;;;;;1731708;28;20232;-64
2023/09/05 00:56:37;;;;;;;0.00;0.00;;;;;;;;;;1731826;28;20212;-64
2023/09/05 00:57:30;;;;;;;0.00;0.00;;;;;;;;;;1731700;28;20223;-64
2023/09/05 00:58:21;;;;;;;0.00;0.00;;;;;;;;;;1734775;28;20638;-65
2023/09/05 00:59:14;;;;;;;0.00;0.00;;;;;;;;;;1731352;28;20203;-64
2023/09/05 01:00:06;;;;;;;0.00;0.00;;;;;;;;;;1737651;28;20593;-64
2023/09/05 01:00:57;;;;;;;0.00;0.00;;;;;;;;;;1730264;28;20285;-64
2023/09/05 01:01:49;;;;;;;0.00;0.00;;;;;;;;;;1730028;28;20203;-64
2023/09/05 01:02:41;;;;;;;0.00;0.00;;;;;;;;;;1728495;28;20393;-64
2023/09/05 01:03:32;;;;;;;0.00;0.00;;;;;;;;;;1734714;28;20219;-64
2023/09/05 01:04:25;;;;;;;0.00;0.00;;;;;;;;;;1731745;28;20223;-65
2023/09/05 01:05:16;;;;;;;0.00;0.00;;;;;;;;;;1730371;28;20780;-64
2023/09/05 01:06:07;;;;;;;0.00;0.00;;;;;;;;;;1731328;28;20207;-64
2023/09/05 01:07:02;;;;;;;0.00;0.00;;;;;;;;;;1732190;28;20269;-65
2023/09/05 01:08:03;;;;;;;0.00;0.00;;;;;;;;;;1732325;28;20208;-65
2023/09/05 01:09:01;;;;;;;0.00;0.00;;;;;;;;;;1732097;28;20257;-64
2023/09/05 01:09:58;;;;;;;0.00;0.00;;;;;;;;;;1731981;28;20281;-64
2023/09/05 01:10:53;;;;;;;0.00;0.00;;;;;;;;;;1730022;28;20293;-64
2023/09/05 01:11:46;;;;;;;0.00;0.00;;;;;;;;;;1731793;28;20662;-64
2023/09/05 01:12:37;;;;;;;0.00;0.00;;;;;;;;;;1731596;28;20212;-66
2023/09/05 01:13:29;;;;;;;0.00;0.00;;;;;;;;;;1734380;28;20227;-65
2023/09/05 01:14:20;;;;;;;0.00;0.00;;;;;;;;;;1731429;28;20262;-64
2023/09/05 01:15:11;;;;;;;0.00;0.00;;;;;;;;;;1731167;28;20834;-64
2023/09/05 01:16:04;;;;;;;0.00;0.00;;;;;;;;;;1731352;28;20704;-65
2023/09/05 01:17:01;;;;;;;0.00;0.00;;;;;;;;;;1731894;28;20207;-64
2023/09/05 01:17:54;;;;;;;0.00;0.00;;;;;;;;;;1732029;28;20636;-64
2023/09/05 01:18:46;;;;;;;0.00;0.00;;;;;;;;;;1733780;28;20653;-64
2023/09/05 01:19:39;;;;;;;0.00;0.00;;;;;;;;;;1731422;28;20222;-65
2023/09/05 01:20:36;;;;;;;0.00;0.00;;;;;;;;;;1727584;28;20663;-65
2023/09/05 01:21:30;;;;;;;0.00;0.00;;;;;;;;;;1731352;28;20203;-64
2023/09/05 01:22:25;;;;;;;0.00;0.00;;;;;;;;;;1731432;28;20215;-65
2023/09/05 01:23:18;;;;;;;0.00;0.00;;;;;;;;;;1731495;28;20223;-64
2023/09/05 01:24:13;;;;;;;0.00;0.00;;;;;;;;;;1731198;28;20215;-64
2023/09/05 01:25:06;;;;;;;0.00;0.00;;;;;;;;;;1732440;28;20200;-64
2023/09/05 01:25:57;;;;;;;0.00;0.00;;;;;;;;;;1729611;28;20266;-64
2023/09/05 01:26:49;;;;;;;0.00;0.00;;;;;;;;;;1731767;28;20298;-64
2023/09/05 01:27:41;;;;;;;0.00;0.00;;;;;;;;;;1731221;28;20235;-64
2023/09/05 01:28:35;;;;;;;0.00;0.00;;;;;;;;;;1734511;28;20208;-65
2023/09/05 01:29:29;;;;;;;0.00;0.00;;;;;;;;;;1731429;28;20208;-65
2023/09/05 01:30:22;;;;;;;0.00;0.00;;;;;;;;;;1731125;28;20227;-64
2023/09/05 01:31:15;;;;;;;0.00;0.00;;;;;;;;;;1730782;28;20232;-65
2023/09/05 01:32:08;;;;;;;0.00;0.00;;;;;;;;;;1732208;28;20207;-65
2023/09/05 01:33:00;;;;;;;0.00;0.00;;;;;;;;;;1731477;28;20207;-64
2023/09/05 01:33:51;;;;;;;0.00;0.00;;;;;;;;;;1731478;28;20266;-65
2023/09/05 01:34:43;;;;;;;0.00;0.00;;;;;;;;;;1731188;28;20207;-65
2023/09/05 01:35:35;;;;;;;0.00;0.00;;;;;;;;;;1729986;28;20592;-65
2023/09/05 01:36:26;;;;;;;0.00;0.00;;;;;;;;;;1731563;28;20211;-64
2023/09/05 01:37:18;;;;;;;0.00;0.00;;;;;;;;;;1731306;28;20204;-65
2023/09/05 01:38:09;;;;;;;0.00;0.00;;;;;;;;;;1734521;28;20207;-65
2023/09/05 01:39:00;;;;;;;0.00;0.00;;;;;;;;;;1731688;28;20204;-68
2023/09/05 01:39:54;;;;;;;0.00;0.00;;;;;;;;;;1731698;28;20318;-65
2023/09/05 01:40:45;;;;;;;0.00;0.00;;;;;;;;;;1729210;28;20239;-65
2023/09/05 01:41:36;;;;;;;0.00;0.00;;;;;;;;;;1731963;28;20297;-65
2023/09/05 01:42:28;;;;;;;0.00;0.00;;;;;;;;;;1731334;28;20646;-65
2023/09/05 01:43:19;;;;;;;0.00;0.00;;;;;;;;;;1734440;28;20215;-65
2023/09/05 01:44:10;;;;;;;0.00;0.00;;;;;;;;;;1731285;28;20622;-65
2023/09/05 01:45:02;;;;;;;0.00;0.00;;;;;;;;;;1731820;28;20748;-65
2023/09/05 01:45:53;;;;;;;0.00;0.00;;;;;;;;;;1729724;28;20239;-65
2023/09/05 01:46:45;;;;;;;0.00;0.00;;;;;;;;;;1731735;28;20200;-65
2023/09/05 01:47:36;;;;;;;0.00;0.00;;;;;;;;;;1731416;28;20204;-65
2023/09/05 01:48:27;;;;;;;0.00;0.00;;;;;;;;;;1730448;28;20609;-65
2023/09/05 01:49:20;;;;;;;0.00;0.00;;;;;;;;;;1731039;28;20698;-65
2023/09/05 01:50:11;;;;;;;0.00;0.00;;;;;;;;;;1728103;28;20204;-65
2023/09/05 01:51:02;;;;;;;0.00;0.00;;;;;;;;;;1730652;28;20229;-65
2023/09/05 01:51:54;;;;;;;0.00;0.00;;;;;;;;;;1732059;28;20499;-65
2023/09/05 01:52:45;;;;;;;0.00;0.00;;;;;;;;;;1731040;28;20243;-65
2023/09/05 01:53:36;;;;;;;0.00;0.00;;;;;;;;;;1731429;28;20223;-65
2023/09/05 01:54:28;;;;;;;0.00;0.00;;;;;;;;;;1731212;28;20314;-66
2023/09/05 01:55:21;;;;;;;0.00;0.00;;;;;;;;;;1730249;28;20214;-66
2023/09/05 01:56:12;;;;;;;0.00;0.00;;;;;;;;;;1731384;28;20207;-65
2023/09/05 01:57:04;;;;;;;0.00;0.00;;;;;;;;;;1732045;28;20332;-65
2023/09/05 01:57:55;;;;;;;0.00;0.00;;;;;;;;;;1732144;28;20250;-64
2023/09/05 01:58:47;;;;;;;0.00;0.00;;;;;;;;;;1733495;28;20688;-63
2023/09/05 01:59:39;;;;;;;0.00;0.00;;;;;;;;;;1731118;28;20211;-64
2023/09/05 02:00:31;;;;;;;0.00;0.00;;;;;;;;;;1730194;28;20235;-64
2023/09/05 02:01:22;;;;;;;0.00;0.00;;;;;;;;;;1731317;28;20226;-63
2023/09/05 02:02:13;;;;;;;0.00;0.00;;;;;;;;;;1731411;28;20726;-63
2023/09/05 02:03:05;;;;;;;0.00;0.00;;;;;;;;;;1733973;28;20211;-63
2023/09/05 02:03:57;;;;;;;0.00;0.00;;;;;;;;;;1731609;28;20215;-63
2023/09/05 02:04:49;;;;;;;0.00;0.00;;;;;;;;;;1731469;28;20227;-66
2023/09/05 02:05:40;;;;;;;0.00;0.00;;;;;;;;;;1729598;28;20791;-65
2023/09/05 02:06:31;;;;;;;0.00;0.00;;;;;;;;;;1731730;28;20238;-66
2023/09/05 02:07:23;;;;;;;0.00;0.00;;;;;;;;;;1731156;28;20230;-66
2023/09/05 02:08:14;;;;;;;0.00;0.00;;;;;;;;;;1734637;28;20203;-66
2023/09/05 02:09:07;;;;;;;0.00;0.00;;;;;;;;;;1731527;28;20213;-66
2023/09/05 02:09:58;;;;;;;0.00;0.00;;;;;;;;;;1731404;28;20982;-66
2023/09/05 02:10:51;;;;;;;0.00;0.00;;;;;;;;;;1729671;28;20281;-66
2023/09/05 02:11:43;;;;;;;0.00;0.00;;;;;;;;;;1731907;28;20203;-66
2023/09/05 02:12:34;;;;;;;0.00;0.00;;;;;;;;;;1731164;28;20219;-66
2023/09/05 02:13:25;;;;;;;0.00;0.00;;;;;;;;;;1734365;28;20261;-65
2023/09/05 02:14:17;;;;;;;0.00;0.00;;;;;;;;;;1730668;28;20697;-66
2023/09/05 02:15:09;;;;;;;0.00;0.00;;;;;;;;;;1732007;28;20215;-66
2023/09/05 02:16:01;;;;;;;0.00;0.00;;;;;;;;;;1727775;28;20258;-67
2023/09/05 02:16:52;;;;;;;0.00;0.00;;;;;;;;;;1731772;28;20614;-67
2023/09/05 02:17:43;;;;;;;0.00;0.00;;;;;;;;;;1731132;28;20919;-66
2023/09/05 02:18:35;;;;;;;0.00;0.00;;;;;;;;;;1734674;28;20339;-67
2023/09/05 02:19:28;;;;;;;0.00;0.00;;;;;;;;;;1731092;28;20222;-66
2023/09/05 02:20:19;;;;;;;0.00;0.00;;;;;;;;;;1727041;28;20206;-66
2023/09/05 02:21:11;;;;;;;0.00;0.00;;;;;;;;;;1732024;28;20622;-68
2023/09/05 02:22:02;;;;;;;0.00;0.00;;;;;;;;;;1725364;28;20510;-66
2023/09/05 02:22:53;;;;;;;0.00;0.00;;;;;;;;;;1731487;28;20222;-66
2023/09/05 02:23:45;;;;;;;0.00;0.00;;;;;;;;;;1733542;28;20331;-67
2023/09/05 02:24:37;;;;;;;0.00;0.00;;;;;;;;;;1730915;28;20203;-67
2023/09/05 02:25:29;;;;;;;0.00;0.00;;;;;;;;;;1730140;28;20234;-66
2023/09/05 02:26:21;;;;;;;0.00;0.00;;;;;;;;;;1730773;28;20214;-66
2023/09/05 02:27:13;;;;;;;0.00;0.00;;;;;;;;;;1731320;28;20210;-65
2023/09/05 02:28:04;;;;;;;0.00;0.00;;;;;;;;;;1733749;28;20207;-64
2023/09/05 02:28:58;;;;;;;0.00;0.00;;;;;;;;;;1731977;28;20207;-67
2023/09/05 02:29:56;;;;;;;0.00;0.00;;;;;;;;;;1731597;28;20671;-65
2023/09/05 02:30:47;;;;;;;0.00;0.00;;;;;;;;;;1729516;28;20231;-65
2023/09/05 02:31:39;;;;;;;0.00;0.00;;;;;;;;;;1731974;28;20211;-64
2023/09/05 02:32:30;;;;;;;0.00;0.00;;;;;;;;;;1730917;28;20199;-64
2023/09/05 02:33:21;;;;;;;0.00;0.00;;;;;;;;;;1734696;28;20229;-65
2023/09/05 02:34:13;;;;;;;0.00;0.00;;;;;;;;;;1730930;28;20242;-64
2023/09/05 02:35:05;;;;;;;0.00;0.00;;;;;;;;;;1731715;28;20215;-64
2023/09/05 02:36:06;;;;;;;0.00;0.00;;;;;;;;;;1729229;28;20758;-64
2023/09/05 02:37:00;;;;;;;0.00;0.00;;;;;;;;;;1731669;28;20659;-65
2023/09/05 02:37:51;;;;;;;0.00;0.00;;;;;;;;;;1731671;28;20260;-66
2023/09/05 02:38:43;;;;;;;0.00;0.00;;;;;;;;;;1733970;28;20203;-64
2023/09/05 02:39:34;;;;;;;0.00;0.00;;;;;;;;;;1731126;28;20215;-64
2023/09/05 02:40:26;;;;;;;0.00;0.00;;;;;;;;;;1731662;28;20204;-65
2023/09/05 02:41:18;;;;;;;0.00;0.00;;;;;;;;;;1731320;28;20716;-65
2023/09/05 02:42:11;;;;;;;0.00;0.00;;;;;;;;;;1731726;28;20208;-65
2023/09/05 02:43:02;;;;;;;0.00;0.00;;;;;;;;;;1733169;28;20218;-66
2023/09/05 02:43:54;;;;;;;0.00;0.00;;;;;;;;;;1732448;28;20623;-64
2023/09/05 02:44:45;;;;;;;0.00;0.00;;;;;;;;;;1730993;28;20211;-64
2023/09/05 02:45:36;;;;;;;0.00;0.00;;;;;;;;;;1729648;28;20322;-65
2023/09/05 02:46:28;;;;;;;0.00;0.00;;;;;;;;;;1731772;28;20207;-64
2023/09/05 02:47:19;;;;;;;0.00;0.00;;;;;;;;;;1731051;28;20671;-64
2023/09/05 02:48:10;;;;;;;0.00;0.00;;;;;;;;;;1730466;28;20209;-64
2023/09/05 02:49:02;;;;;;;0.00;0.00;;;;;;;;;;1731047;28;20219;-64
2023/09/05 02:49:53;;;;;;;0.00;0.00;;;;;;;;;;1730952;28;20675;-64
2023/09/05 02:50:44;;;;;;;0.00;0.00;;;;;;;;;;1727481;28;20710;-64
2023/09/05 02:51:37;;;;;;;0.00;0.00;;;;;;;;;;1732076;28;20215;-64
2023/09/05 02:52:29;;;;;;;0.00;0.00;;;;;;;;;;1731035;28;20215;-64
2023/09/05 02:53:20;;;;;;;0.00;0.00;;;;;;;;;;1731368;28;20659;-65
2023/09/05 02:54:12;;;;;;;0.00;0.00;;;;;;;;;;1731300;28;20235;-65
2023/09/05 02:55:03;;;;;;;0.00;0.00;;;;;;;;;;1730246;28;20305;-65
2023/09/05 02:55:54;;;;;;;0.00;0.00;;;;;;;;;;1729472;28;20326;-64
2023/09/05 02:56:46;;;;;;;0.00;0.00;;;;;;;;;;1732307;28;20584;-64
2023/09/05 02:57:39;;;;;;;0.00;0.00;;;;;;;;;;1731079;28;20216;-65
2023/09/05 02:58:31;;;;;;;0.00;0.00;;;;;;;;;;1735337;28;20213;-65
2023/09/05 02:59:24;;;;;;;0.00;0.00;;;;;;;;;;1731328;28;20199;-65
2023/09/05 03:00:19;;;;;;;0.00;0.00;;;;;;;;;;1730360;28;20222;-65
2023/09/05 03:01:11;;;;;;;0.00;0.00;;;;;;;;;;1732130;28;20596;-67
2023/09/05 03:02:04;;;;;;;0.00;0.00;;;;;;;;;;1725309;28;20323;-66
2023/09/05 03:02:56;;;;;;;0.00;0.00;;;;;;;;;;1732213;28;20594;-65
2023/09/05 03:03:48;;;;;;;0.00;0.00;;;;;;;;;;1733913;28;20238;-65
2023/09/05 03:04:39;;;;;;;0.00;0.00;;;;;;;;;;1731161;28;20651;-64
2023/09/05 03:05:30;;;;;;;0.00;0.00;;;;;;;;;;1730316;28;20643;-64
2023/09/05 03:06:23;;;;;;;0.00;0.00;;;;;;;;;;1732146;28;20210;-64
2023/09/05 03:07:15;;;;;;;0.00;0.00;;;;;;;;;;1731455;28;20261;-67
2023/09/05 03:08:06;;;;;;;0.00;0.00;;;;;;;;;;1734214;28;20200;-65
2023/09/05 03:08:58;;;;;;;0.00;0.00;;;;;;;;;;1732361;28;20579;-66
2023/09/05 03:09:50;;;;;;;0.00;0.00;;;;;;;;;;1731633;28;20208;-65
2023/09/05 03:10:41;;;;;;;0.00;0.00;;;;;;;;;;1729760;28;20227;-65
2023/09/05 03:11:34;;;;;;;0.00;0.00;;;;;;;;;;1732292;28;20321;-64
2023/09/05 03:12:25;;;;;;;0.00;0.00;;;;;;;;;;1731123;28;20667;-64
2023/09/05 03:13:17;;;;;;;0.00;0.00;;;;;;;;;;1735061;28;20395;-64
2023/09/05 03:14:09;;;;;;;0.00;0.00;;;;;;;;;;1731123;28;20583;-64
2023/09/05 03:15:00;;;;;;;0.00;0.00;;;;;;;;;;1731460;28;20219;-67
2023/09/05 03:15:52;;;;;;;0.00;0.00;;;;;;;;;;1729506;28;20318;-64
2023/09/05 03:16:44;;;;;;;0.00;0.00;;;;;;;;;;1732201;28;20195;-65
2023/09/05 03:17:35;;;;;;;0.00;0.00;;;;;;;;;;1731189;28;20226;-65
2023/09/05 03:18:27;;;;;;;0.00;0.00;;;;;;;;;;1734903;28;20203;-64
2023/09/05 03:19:21;;;;;;;0.00;0.00;;;;;;;;;;1730890;28;20216;-65
2023/09/05 03:20:15;;;;;;;0.00;0.00;;;;;;;;;;1727191;28;20215;-67
2023/09/05 03:21:07;;;;;;;0.00;0.00;;;;;;;;;;1731269;28;20322;-64
2023/09/05 03:21:58;;;;;;;0.00;0.00;;;;;;;;;;1730968;28;20273;-64
2023/09/05 03:22:49;;;;;;;0.00;0.00;;;;;;;;;;1730718;28;20204;-65
2023/09/05 03:23:42;;;;;;;0.00;0.00;;;;;;;;;;1734272;28;20239;-64
2023/09/05 03:24:33;;;;;;;0.00;0.00;;;;;;;;;;1730665;28;20204;-64
2023/09/05 03:25:24;;;;;;;0.00;0.00;;;;;;;;;;1730135;28;20199;-64
2023/09/05 03:26:16;;;;;;;0.00;0.00;;;;;;;;;;1731638;28;20542;-64
2023/09/05 03:27:07;;;;;;;0.00;0.00;;;;;;;;;;1732923;28;20234;-64
2023/09/05 03:27:58;;;;;;;0.00;0.00;;;;;;;;;;1733456;28;20675;-64
2023/09/05 03:28:52;;;;;;;0.00;0.00;;;;;;;;;;1734401;28;20207;-64
2023/09/05 03:29:43;;;;;;;0.00;0.00;;;;;;;;;;1732437;28;20211;-64
2023/09/05 03:30:34;;;;;;;0.00;0.00;;;;;;;;;;1730960;28;20227;-65
2023/09/05 03:31:28;;;;;;;0.00;0.00;;;;;;;;;;1733201;28;20211;-65
2023/09/05 03:32:19;;;;;;;0.00;0.00;;;;;;;;;;1732412;28;20731;-64
2023/09/05 03:33:11;;;;;;;0.00;0.00;;;;;;;;;;1735858;28;20226;-66
2023/09/05 03:34:02;;;;;;;0.00;0.00;;;;;;;;;;1732360;28;20222;-65
2023/09/05 03:34:55;;;;;;;0.00;0.00;;;;;;;;;;1732410;28;20218;-64
2023/09/05 03:35:46;;;;;;;0.00;0.00;;;;;;;;;;1730717;28;20239;-65
2023/09/05 03:36:38;;;;;;;0.00;0.00;;;;;;;;;;1729911;28;20214;-64
2023/09/05 03:37:30;;;;;;;0.00;0.00;;;;;;;;;;1731948;28;20203;-65
2023/09/05 03:38:22;;;;;;;0.00;0.00;;;;;;;;;;1733880;28;20235;-64
2023/09/05 03:39:13;;;;;;;0.00;0.00;;;;;;;;;;1732148;28;20222;-65
2023/09/05 03:40:06;;;;;;;0.00;0.00;;;;;;;;;;1732725;28;20674;-65
2023/09/05 03:40:59;;;;;;;0.00;0.00;;;;;;;;;;1730504;28;20231;-64
2023/09/05 03:41:50;;;;;;;0.00;0.00;;;;;;;;;;1733318;28;20582;-65
2023/09/05 03:42:43;;;;;;;0.00;0.00;;;;;;;;;;1731855;28;20212;-65
2023/09/05 03:43:34;;;;;;;0.00;0.00;;;;;;;;;;1736019;28;20233;-64
2023/09/05 03:44:27;;;;;;;0.00;0.00;;;;;;;;;;1732152;28;20282;-64
2023/09/05 03:45:19;;;;;;;0.00;0.00;;;;;;;;;;1731009;28;20250;-64
2023/09/05 03:46:10;;;;;;;0.00;0.00;;;;;;;;;;1732822;28;20204;-65
2023/09/05 03:47:01;;;;;;;0.00;0.00;;;;;;;;;;1733000;28;20208;-65
2023/09/05 03:47:53;;;;;;;0.00;0.00;;;;;;;;;;1730399;28;20208;-65
2023/09/05 03:48:45;;;;;;;0.00;0.00;;;;;;;;;;1732489;28;20240;-64
2023/09/05 03:49:37;;;;;;;0.00;0.00;;;;;;;;;;1731734;28;20742;-64
2023/09/05 03:50:29;;;;;;;0.00;0.00;;;;;;;;;;1727370;28;20212;-64
2023/09/05 03:51:20;;;;;;;0.00;0.00;;;;;;;;;;1733036;28;20219;-65
2023/09/05 03:52:11;;;;;;;0.00;0.00;;;;;;;;;;1732721;28;20212;-67
2023/09/05 03:53:03;;;;;;;0.00;0.00;;;;;;;;;;1731898;28;20222;-65
2023/09/05 03:53:54;;;;;;;0.00;0.00;;;;;;;;;;1732284;28;20612;-65
2023/09/05 03:54:46;;;;;;;0.00;0.00;;;;;;;;;;1732216;28;20245;-64
2023/09/05 03:55:38;;;;;;;0.00;0.00;;;;;;;;;;1730733;28;20258;-65
2023/09/05 03:56:29;;;;;;;0.00;0.00;;;;;;;;;;1733199;28;20207;-65
2023/09/05 03:57:20;;;;;;;0.00;0.00;;;;;;;;;;1732182;28;20207;-66
2023/09/05 03:58:12;;;;;;;0.00;0.00;;;;;;;;;;1735700;28;20203;-65
2023/09/05 03:59:03;;;;;;;0.00;0.00;;;;;;;;;;1732403;28;20211;-62
2023/09/05 03:59:57;;;;;;;0.00;0.00;;;;;;;;;;1732513;28;20234;-65
2023/09/05 04:00:48;;;;;;;0.00;0.00;;;;;;;;;;1730414;28;20235;-65
2023/09/05 04:01:39;;;;;;;0.00;0.00;;;;;;;;;;1733847;28;20200;-65
2023/09/05 04:02:31;;;;;;;0.00;0.00;;;;;;;;;;1731917;28;20639;-65
2023/09/05 04:03:22;;;;;;;0.00;0.00;;;;;;;;;;1736167;28;20210;-65
2023/09/05 04:04:13;;;;;;;0.00;0.00;;;;;;;;;;1732098;28;20299;-65
2023/09/05 04:05:07;;;;;;;0.00;0.00;;;;;;;;;;1732394;28;20667;-65
2023/09/05 04:06:00;;;;;;;0.00;0.00;;;;;;;;;;1730153;28;20240;-65
2023/09/05 04:06:51;;;;;;;0.00;0.00;;;;;;;;;;1733447;28;20692;-65
2023/09/05 04:07:43;;;;;;;0.00;0.00;;;;;;;;;;1731962;28;20656;-65
2023/09/05 04:08:34;;;;;;;0.00;0.00;;;;;;;;;;1736196;28;20210;-65
2023/09/05 04:09:25;;;;;;;0.00;0.00;;;;;;;;;;1732018;28;20235;-65
2023/09/05 04:10:18;;;;;;;0.00;0.00;;;;;;;;;;1730683;28;20207;-63
2023/09/05 04:11:09;;;;;;;0.00;0.00;;;;;;;;;;1732362;28;20200;-64
2023/09/05 04:12:00;;;;;;;0.00;0.00;;;;;;;;;;1733481;28;20212;-66
2023/09/05 04:12:52;;;;;;;0.00;0.00;;;;;;;;;;1731997;28;20592;-65
2023/09/05 04:13:43;;;;;;;0.00;0.00;;;;;;;;;;1735546;28;20801;-65
2023/09/05 04:14:35;;;;;;;0.00;0.00;;;;;;;;;;1731630;28;20223;-66
2023/09/05 04:15:28;;;;;;;0.00;0.00;;;;;;;;;;1730723;28;20594;-65
2023/09/05 04:16:20;;;;;;;0.00;0.00;;;;;;;;;;1733003;28;20451;-65
2023/09/05 04:17:11;;;;;;;0.00;0.00;;;;;;;;;;1732357;28;20212;-65
2023/09/05 04:18:02;;;;;;;0.00;0.00;;;;;;;;;;1733876;28;20552;-65
2023/09/05 04:18:54;;;;;;;0.00;0.00;;;;;;;;;;1733906;28;20297;-65
2023/09/05 04:19:45;;;;;;;0.00;0.00;;;;;;;;;;1732228;28;20619;-65
2023/09/05 04:20:37;;;;;;;0.00;0.00;;;;;;;;;;1726925;28;20232;-65
2023/09/05 04:21:28;;;;;;;0.00;0.00;;;;;;;;;;1733254;28;20216;-65
2023/09/05 04:22:21;;;;;;;0.00;0.00;;;;;;;;;;1731899;28;20596;-65
2023/09/05 04:23:12;;;;;;;0.00;0.00;;;;;;;;;;1735246;28;20298;-64
2023/09/05 04:24:03;;;;;;;0.00;0.00;;;;;;;;;;1732290;28;20734;-64
2023/09/05 04:24:56;;;;;;;0.00;0.00;;;;;;;;;;1732159;28;20361;-66
2023/09/05 04:25:55;;;;;;;0.00;0.00;;;;;;;;;;1729744;28;20235;-65
2023/09/05 04:26:47;;;;;;;0.00;0.00;;;;;;;;;;1730559;28;20209;-64
2023/09/05 04:27:38;;;;;;;0.00;0.00;;;;;;;;;;1731768;28;20213;-65
2023/09/05 04:28:30;;;;;;;0.00;0.00;;;;;;;;;;1736293;28;20195;-65
2023/09/05 04:29:22;;;;;;;0.00;0.00;;;;;;;;;;1731707;28;20269;-66
2023/09/05 04:30:13;;;;;;;0.00;0.00;;;;;;;;;;1731207;28;20690;-66
2023/09/05 04:31:07;;;;;;;0.00;0.00;;;;;;;;;;1731738;28;20212;-65
2023/09/05 04:31:58;;;;;;;0.00;0.00;;;;;;;;;;1733489;28;20207;-65
2023/09/05 04:32:49;;;;;;;0.00;0.00;;;;;;;;;;1731795;28;20204;-65
2023/09/05 04:33:41;;;;;;;0.00;0.00;;;;;;;;;;1735865;28;20565;-65
2023/09/05 04:34:34;;;;;;;0.00;0.00;;;;;;;;;;1731623;28;20727;-65
2023/09/05 04:35:26;;;;;;;0.00;0.00;;;;;;;;;;1730720;28;20212;-65
2023/09/05 04:36:18;;;;;;;0.00;0.00;;;;;;;;;;1732824;28;20200;-66
2023/09/05 04:37:10;;;;;;;0.00;0.00;;;;;;;;;;1725472;28;20212;-66
2023/09/05 04:38:01;;;;;;;0.00;0.00;;;;;;;;;;1732838;28;20246;-65
2023/09/05 04:38:53;;;;;;;0.00;0.00;;;;;;;;;;1732134;28;20218;-65
2023/09/05 04:39:44;;;;;;;0.00;0.00;;;;;;;;;;1731662;28;20207;-65
2023/09/05 04:40:35;;;;;;;0.00;0.00;;;;;;;;;;1730769;28;20670;-65
2023/09/05 04:41:27;;;;;;;0.00;0.00;;;;;;;;;;1733368;28;20207;-65
2023/09/05 04:42:18;;;;;;;0.00;0.00;;;;;;;;;;1731781;28;20215;-64
2023/09/05 04:43:10;;;;;;;0.00;0.00;;;;;;;;;;1735130;28;20213;-66
2023/09/05 04:44:02;;;;;;;0.00;0.00;;;;;;;;;;1732573;28;20214;-65
2023/09/05 04:44:53;;;;;;;0.00;0.00;;;;;;;;;;1732152;28;20606;-65
2023/09/05 04:45:53;;;;;;;0.00;0.00;;;;;;;;;;1730114;28;20607;-65
2023/09/05 04:46:45;;;;;;;0.00;0.00;;;;;;;;;;1730108;28;20570;-65
2023/09/05 04:47:38;;;;;;;0.00;0.00;;;;;;;;;;1731723;28;20215;-66
2023/09/05 04:48:29;;;;;;;0.00;0.00;;;;;;;;;;1730627;28;20223;-65
2023/09/05 04:49:21;;;;;;;0.00;0.00;;;;;;;;;;1731786;28;20211;-66
2023/09/05 04:50:12;;;;;;;0.00;0.00;;;;;;;;;;1729096;28;20213;-65
2023/09/05 04:51:04;;;;;;;0.00;0.00;;;;;;;;;;1729524;28;20286;-65
2023/09/05 04:51:55;;;;;;;0.00;0.00;;;;;;;;;;1733399;28;20691;-65
2023/09/05 04:52:46;;;;;;;0.00;0.00;;;;;;;;;;1731330;28;20663;-66
2023/09/05 04:53:38;;;;;;;0.00;0.00;;;;;;;;;;1732111;28;20226;-65
2023/09/05 04:54:29;;;;;;;0.00;0.00;;;;;;;;;;1731410;28;20199;-65
2023/09/05 04:55:20;;;;;;;0.00;0.00;;;;;;;;;;1730771;28;20702;-65
2023/09/05 04:56:13;;;;;;;0.00;0.00;;;;;;;;;;1732184;28;20227;-65
2023/09/05 04:57:04;;;;;;;0.00;0.00;;;;;;;;;;1732729;28;20579;-65
2023/09/05 04:57:56;;;;;;;0.00;0.00;;;;;;;;;;1732432;28;20206;-65
2023/09/05 04:58:47;;;;;;;0.00;0.00;;;;;;;;;;1735144;28;20215;-65
2023/09/05 04:59:38;;;;;;;0.00;0.00;;;;;;;;;;1731691;28;20780;-65
2023/09/05 05:00:33;;;;;;;0.00;0.00;;;;;;;;;;1730230;28;20246;-65
2023/09/05 05:01:24;;;;;;;0.00;0.00;;;;;;;;;;1733286;28;20208;-64
2023/09/05 05:02:17;;;;;;;0.00;0.00;;;;;;;;;;1732088;28;20602;-65
2023/09/05 05:03:09;;;;;;;0.00;0.00;;;;;;;;;;1734657;28;20741;-67
2023/09/05 05:04:00;;;;;;;0.00;0.00;;;;;;;;;;1732972;28;20207;-66
2023/09/05 05:04:51;;;;;;;0.00;0.00;;;;;;;;;;1735735;28;20298;-63
2023/09/05 05:05:44;;;;;;;0.00;0.00;;;;;;;;;;1735004;28;20231;-66
2023/09/05 05:06:35;;;;;;;0.00;0.00;;;;;;;;;;1733240;28;20600;-65
2023/09/05 05:07:26;;;;;;;0.00;0.00;;;;;;;;;;1731512;28;20738;-64
2023/09/05 05:08:18;;;;;;;0.00;0.00;;;;;;;;;;1736461;28;20222;-65
2023/09/05 05:09:09;;;;;;;0.00;0.00;;;;;;;;;;1727535;28;20671;-65
2023/09/05 05:10:00;;;;;;;0.00;0.00;;;;;;;;;;1732135;28;20266;-65
2023/09/05 05:10:52;;;;;;;0.00;0.00;;;;;;;;;;1729969;28;20223;-65
2023/09/05 05:11:43;;;;;;;0.00;0.00;;;;;;;;;;1733296;28;20299;-65